Time;durP1;ratioP1;P1;durP2;ratioP2;P2;SDS_P1;SDS_P2;PMS_P1;PMS_P2;Temp;Humidity;BMP_temperature;BMP_pressure;BME280_temperature;BME280_humidity;BME280_pressure;Samples;Min_cycle;Max_cycle;Signal;HPM_P1;HPM_P2
2021/06/01 00:03:54;;;;;;;2.72;1.30;;;14.00;99.90;;;;;;12432624;28;20088;-37
2021/06/01 00:09:56;;;;;;;3.22;1.40;;;13.90;99.90;;;;;;12436424;28;20107;-37
2021/06/01 00:15:58;;;;;;;3.55;1.50;;;13.70;99.90;;;;;;12432825;28;20098;-37
2021/06/01 00:22:00;;;;;;;2.45;1.27;;;13.50;99.90;;;;;;12427423;28;20418;-38
2021/06/01 00:28:02;;;;;;;2.47;1.38;;;13.20;99.90;;;;;;12440457;28;20049;-39
2021/06/01 00:34:04;;;;;;;3.92;1.48;;;13.20;99.90;;;;;;12425776;28;20049;-37
2021/06/01 00:40:07;;;;;;;2.70;1.40;;;13.30;99.90;;;;;;12434594;28;20149;-38
2021/06/01 00:46:09;;;;;;;2.20;1.30;;;13.10;99.90;;;;;;12438246;28;20857;-37
2021/06/01 00:52:12;;;;;;;5.15;1.50;;;13.20;99.90;;;;;;12434122;28;20046;-37
2021/06/01 00:58:14;;;;;;;2.53;1.40;;;13.30;99.90;;;;;;12432244;28;20054;-39
2021/06/01 01:04:16;;;;;;;4.88;1.70;;;13.50;99.90;;;;;;12433783;28;20050;-37
2021/06/01 01:10:18;;;;;;;3.65;1.60;;;13.50;99.90;;;;;;12428725;28;20057;-39
2021/06/01 01:16:23;;;;;;;4.15;1.80;;;13.40;99.90;;;;;;12434180;28;20088;-38
2021/06/01 01:22:26;;;;;;;3.55;1.52;;;13.00;99.90;;;;;;12425713;28;20509;-38
2021/06/01 01:28:54;;;;;;;2.53;1.55;;;12.80;99.90;;;;;;12431050;28;20054;-39
2021/06/01 01:34:58;;;;;;;3.17;1.65;;;12.90;99.90;;;;;;12430538;28;20042;-37
2021/06/01 01:41:27;;;;;;;4.35;1.73;;;12.90;99.90;;;;;;12430577;28;20050;-37
2021/06/01 01:53:35;;;;;;;3.67;1.55;;;12.50;99.90;;;;;;12432112;28;20061;-36
2021/06/01 01:59:38;;;;;;;4.20;1.48;;;12.50;99.90;;;;;;12430004;28;20045;-37
2021/06/01 02:05:41;;;;;;;3.00;1.50;;;12.60;99.90;;;;;;12436938;28;20054;-37
2021/06/01 02:11:46;;;;;;;3.00;1.33;;;12.50;99.90;;;;;;12442661;28;20401;-37
2021/06/01 02:17:47;;;;;;;2.90;1.70;;;12.50;99.90;;;;;;12434775;28;20050;-38
2021/06/01 02:23:56;;;;;;;5.20;1.48;;;12.20;99.90;;;;;;12434603;28;20060;-37
2021/06/01 02:30:04;;;;;;;1.90;1.40;;;11.80;99.90;;;;;;12433845;28;20460;-38
2021/06/01 02:36:07;;;;;;;3.55;1.70;;;11.50;99.90;;;;;;12385658;28;20049;-38
2021/06/01 02:42:10;;;;;;;4.03;1.80;;;11.60;99.90;;;;;;12389783;28;20986;-37
2021/06/01 02:48:14;;;;;;;3.35;1.70;;;11.90;99.90;;;;;;12382596;28;20065;-38
2021/06/01 02:54:16;;;;;;;3.85;1.65;;;11.70;99.90;;;;;;12384120;28;20079;-39
2021/06/01 03:00:20;;;;;;;3.05;1.77;;;11.30;99.90;;;;;;12389423;28;20612;-38
2021/06/01 03:06:25;;;;;;;3.42;1.80;;;11.40;99.90;;;;;;12387918;28;20556;-38
2021/06/01 03:18:29;;;;;;;6.50;2.10;;;11.50;99.90;;;;;;12383975;28;20081;-37
2021/06/01 03:24:32;;;;;;;4.45;2.00;;;11.50;99.90;;;;;;12386312;28;20137;-37
2021/06/01 03:30:37;;;;;;;4.20;2.28;;;11.40;99.90;;;;;;12383120;28;20054;-38
2021/06/01 03:36:39;;;;;;;4.53;1.92;;;11.10;99.90;;;;;;12388760;28;20061;-39
2021/06/01 03:42:41;;;;;;;4.68;1.90;;;10.90;99.90;;;;;;12384306;28;20077;-37
2021/06/01 03:48:43;;;;;;;5.93;1.92;;;10.80;99.90;;;;;;12381768;28;20137;-37
2021/06/01 03:54:44;;;;;;;3.45;1.88;;;10.90;99.90;;;;;;12385017;28;20077;-41
2021/06/01 04:00:47;;;;;;;2.88;1.60;;;11.00;99.90;;;;;;12358551;28;20054;-37
2021/06/01 04:06:48;;;;;;;3.60;1.77;;;10.80;99.90;;;;;;12392581;28;20771;-37
2021/06/01 04:12:50;;;;;;;2.70;1.60;;;10.90;99.90;;;;;;12386389;28;20194;-38
2021/06/01 04:18:53;;;;;;;3.97;2.03;;;11.20;99.90;;;;;;12385669;28;20140;-37
2021/06/01 04:24:55;;;;;;;2.83;1.63;;;11.30;99.90;;;;;;12378575;28;20057;-37
2021/06/01 04:30:57;;;;;;;3.20;1.83;;;11.00;99.90;;;;;;12384134;28;20406;-37
2021/06/01 04:36:59;;;;;;;5.50;1.90;;;11.30;99.90;;;;;;12378564;28;20081;-37
2021/06/01 04:43:00;;;;;;;6.05;1.75;;;11.60;99.90;;;;;;12371724;28;20050;-36
2021/06/01 04:49:03;;;;;;;6.00;2.30;;;11.90;99.90;;;;;;12376618;28;20081;-38
2021/06/01 04:55:05;;;;;;;7.45;1.90;;;12.10;99.90;;;;;;12381210;28;20053;-37
2021/06/01 05:01:08;;;;;;;7.05;2.05;;;12.30;99.90;;;;;;12378501;28;20165;-38
2021/06/01 05:07:12;;;;;;;4.85;2.58;;;12.50;99.90;;;;;;12379123;28;20057;-39
2021/06/01 05:13:14;;;;;;;4.72;2.95;;;12.50;99.90;;;;;;12378798;28;20141;-37
2021/06/01 05:19:15;;;;;;;4.65;2.88;;;12.60;99.90;;;;;;12387730;28;20104;-37
2021/06/01 05:25:17;;;;;;;4.60;2.78;;;12.70;99.90;;;;;;12382850;28;20053;-36
2021/06/01 05:31:24;;;;;;;5.63;2.72;;;12.80;99.90;;;;;;12381709;28;20064;-37
2021/06/01 05:37:27;;;;;;;6.13;3.03;;;12.90;99.90;;;;;;12386984;28;20047;-39
2021/06/01 05:43:30;;;;;;;8.52;3.03;;;13.00;99.90;;;;;;12388727;28;20041;-37
2021/06/01 05:49:32;;;;;;;8.25;3.25;;;13.10;99.90;;;;;;12395118;28;20054;-36
2021/06/01 05:55:35;;;;;;;5.57;2.70;;;13.10;99.90;;;;;;12389015;28;20784;-40
2021/06/01 06:01:37;;;;;;;7.15;2.90;;;13.30;99.90;;;;;;12382789;28;20050;-38
2021/06/01 06:07:40;;;;;;;5.43;2.72;;;13.40;99.90;;;;;;12393165;28;20188;-37
2021/06/01 06:13:42;;;;;;;4.03;2.20;;;13.50;99.90;;;;;;12384189;28;20120;-37
2021/06/01 06:19:44;;;;;;;5.45;2.30;;;13.70;99.90;;;;;;12391453;28;20661;-38
2021/06/01 06:25:46;;;;;;;6.43;2.53;;;14.00;99.90;;;;;;12382465;28;20154;-38
2021/06/01 06:31:48;;;;;;;4.18;2.35;;;14.20;99.90;;;;;;12382609;28;20127;-42
2021/06/01 06:37:50;;;;;;;7.50;2.42;;;14.50;99.90;;;;;;12384694;28;20099;-37
2021/06/01 06:43:53;;;;;;;5.88;2.20;;;14.80;99.90;;;;;;12388586;28;20104;-40
2021/06/01 06:49:55;;;;;;;3.75;1.80;;;15.00;99.90;;;;;;12391339;28;20463;-39
2021/06/01 06:55:57;;;;;;;3.35;1.70;;;15.20;99.90;;;;;;12389794;28;20056;-37
2021/06/01 07:02:00;;;;;;;3.80;1.58;;;15.30;99.90;;;;;;12390294;28;20529;-38
2021/06/01 07:08:02;;;;;;;3.97;1.75;;;15.40;99.90;;;;;;12387450;28;20053;-38
2021/06/01 07:14:09;;;;;;;3.42;1.90;;;15.60;99.90;;;;;;12387879;28;20069;-38
2021/06/01 07:20:14;;;;;;;3.88;1.70;;;15.70;99.90;;;;;;12382379;28;20054;-39
2021/06/01 07:26:16;;;;;;;5.03;1.80;;;15.80;99.90;;;;;;12390382;28;20050;-38
2021/06/01 07:32:20;;;;;;;3.67;1.48;;;16.00;99.90;;;;;;12389206;28;20096;-38
2021/06/01 07:38:22;;;;;;;3.55;1.63;;;16.80;99.90;;;;;;12388307;28;20137;-40
2021/06/01 07:44:25;;;;;;;2.88;1.20;;;17.60;99.90;;;;;;12382504;28;20104;-39
2021/06/01 07:50:27;;;;;;;4.30;1.40;;;18.00;99.90;;;;;;12391744;28;20092;-41
2021/06/01 07:56:31;;;;;;;4.50;1.50;;;18.30;99.90;;;;;;12384981;28;20054;-38
2021/06/01 08:02:36;;;;;;;4.37;1.50;;;18.50;99.90;;;;;;12405574;28;20144;-38
2021/06/01 08:08:38;;;;;;;5.32;1.35;;;18.60;99.90;;;;;;12429223;28;20062;-39
2021/06/01 08:14:40;;;;;;;9.27;1.63;;;18.70;99.90;;;;;;12396284;28;20054;-41
2021/06/01 08:20:54;;;;;;;3.70;1.55;;;19.10;99.90;;;;;;12382679;28;20050;-38
2021/06/01 08:26:56;;;;;;;3.90;1.58;;;19.00;99.90;;;;;;12383576;28;20546;-39
2021/06/01 08:32:58;;;;;;;2.22;1.30;;;19.00;99.90;;;;;;12380940;28;20128;-39
2021/06/01 08:39:00;;;;;;;4.70;1.55;;;19.10;99.90;;;;;;12381098;28;20046;-38
2021/06/01 08:45:05;;;;;;;3.33;1.55;;;19.30;99.90;;;;;;12382086;28;20431;-38
2021/06/01 08:51:07;;;;;;;4.20;1.45;;;19.40;99.90;;;;;;12383235;28;20056;-38
2021/06/01 08:57:10;;;;;;;5.15;1.65;;;19.60;99.90;;;;;;12374646;28;20057;-39
2021/06/01 09:03:15;;;;;;;3.05;1.40;;;19.90;99.90;;;;;;12380521;28;20060;-38
2021/06/01 09:19:47;;;;;;;6.40;2.10;;;20.00;99.90;;;;;;12388953;28;20570;-40
2021/06/01 09:22:02;;;;;;;4.57;1.60;;;20.20;99.90;;;;;;12388912;28;20049;-38
2021/06/01 09:28:06;;;;;;;3.78;1.48;;;20.40;99.90;;;;;;12387586;28;20157;-38
2021/06/01 09:34:09;;;;;;;3.92;1.50;;;20.70;99.90;;;;;;12389482;28;20050;-38
2021/06/01 09:40:17;;;;;;;3.83;1.70;;;20.90;99.90;;;;;;12373526;28;20087;-39
2021/06/01 09:46:45;;;;;;;3.33;1.48;;;21.10;99.90;;;;;;12382357;28;20131;-41
2021/06/01 09:52:51;;;;;;;3.05;1.52;;;21.50;99.90;;;;;;12377785;28;20089;-37
2021/06/01 09:58:53;;;;;;;4.70;2.00;;;21.40;99.90;;;;;;12379339;28;20544;-39
2021/06/01 10:05:15;;;;;;;2.70;1.60;;;21.50;99.90;;;;;;12377512;28;20191;-38
2021/06/01 10:11:17;;;;;;;3.75;1.65;;;21.50;99.90;;;;;;12387250;28;20046;-38
2021/06/01 10:17:19;;;;;;;6.55;1.90;;;21.40;99.90;;;;;;12376529;28;20107;-38
2021/06/01 10:23:27;;;;;;;4.18;1.83;;;21.30;99.90;;;;;;12379531;28;21199;-37
2021/06/01 10:29:29;;;;;;;4.90;1.98;;;21.30;99.90;;;;;;12381853;28;20057;-38
2021/06/01 10:35:35;;;;;;;5.20;1.95;;;21.40;99.90;;;;;;12427219;28;20045;-38
2021/06/01 10:48:54;;;;;;;4.30;2.30;;;21.50;99.90;;;;;;12383477;28;20144;-38
2021/06/01 10:55:08;;;;;;;3.85;2.08;;;21.40;99.90;;;;;;12375114;28;20081;-38
2021/06/01 11:07:58;;;;;;;6.25;2.55;;;21.60;99.90;;;;;;12374557;28;20469;-39
2021/06/01 11:14:20;;;;;;;7.85;2.53;;;21.90;99.90;;;;;;12381938;28;20483;-38
2021/06/01 11:20:37;;;;;;;6.38;2.53;;;21.80;99.90;;;;;;12378006;28;20512;-38
2021/06/01 11:33:17;;;;;;;6.30;1.98;;;22.80;99.90;;;;;;12383015;28;21020;-38
2021/06/01 11:40:09;;;;;;;4.05;2.10;;;23.20;99.90;;;;;;12382351;28;20046;-38
2021/06/01 11:46:07;;;;;;;6.47;2.33;;;23.00;99.90;;;;;;12385647;28;20099;-38
2021/06/01 11:52:09;;;;;;;3.40;1.90;;;23.30;99.90;;;;;;12384719;28;20051;-39
2021/06/01 12:11:18;;;;;;;5.13;1.88;;;24.10;98.80;;;;;;12378523;28;20099;-38
2021/06/01 12:17:21;;;;;;;4.97;2.03;;;23.80;98.30;;;;;;12368555;28;20050;-41
2021/06/01 12:23:36;;;;;;;3.72;2.00;;;23.90;99.90;;;;;;12380341;28;20140;-38
2021/06/01 12:42:22;;;;;;;4.88;2.10;;;23.40;99.90;;;;;;12364805;28;20062;-39
2021/06/01 13:08:14;;;;;;;4.03;2.00;;;24.10;96.30;;;;;;12378389;28;20141;-42
2021/06/01 13:39:30;;;;;;;5.63;2.03;;;24.00;95.70;;;;;;12372562;28;20308;-41
2021/06/01 13:52:06;;;;;;;3.38;2.20;;;23.90;99.90;;;;;;12376392;28;20057;-39
2021/06/01 14:36:02;;;;;;;5.60;2.33;;;24.00;99.90;;;;;;12381804;28;20614;-39
2021/06/01 16:30:07;;;;;;;8.63;2.78;;;24.40;99.90;;;;;;12379640;28;20171;-39
2021/06/01 17:14:28;;;;;;;4.80;2.58;;;24.90;99.90;;;;;;12378760;28;20066;-40
2021/06/01 17:39:22;;;;;;;7.38;2.90;;;;;;;;;;12387275;28;20111;-39
2021/06/01 17:45:25;;;;;;;4.90;2.63;;;26.20;99.90;;;;;;12381967;28;20506;-43
2021/06/01 17:51:28;;;;;;;6.47;2.97;;;25.70;99.90;;;;;;12383570;28;20305;-38
2021/06/01 17:57:30;;;;;;;5.55;3.08;;;24.70;99.50;;;;;;12385093;28;20107;-39
2021/06/01 18:03:35;;;;;;;5.60;2.70;;;24.00;99.90;;;;;;12379731;28;20054;-41
2021/06/01 19:00:48;;;;;;;5.82;2.60;;;21.90;99.90;;;;;;12378558;28;20050;-39
2021/06/01 19:25:41;;;;;;;4.32;2.97;;;21.50;99.90;;;;;;12381656;28;20050;-39
2021/06/01 19:50:35;;;;;;;4.55;3.17;;;20.30;99.90;;;;;;12381923;28;20046;-40
2021/06/01 19:56:39;;;;;;;6.13;3.40;;;20.20;99.90;;;;;;12380611;28;20544;-38
2021/06/01 20:02:41;;;;;;;5.97;3.50;;;20.00;99.90;;;;;;12378909;28;20046;-39
2021/06/01 20:08:43;;;;;;;7.50;3.90;;;19.70;99.90;;;;;;12375335;28;20852;-40
2021/06/01 20:14:46;;;;;;;7.78;3.85;;;19.40;99.90;;;;;;12374817;28;20885;-39
2021/06/01 20:20:50;;;;;;;8.52;3.95;;;19.30;99.90;;;;;;12378070;28;20054;-39
2021/06/01 20:26:52;;;;;;;6.88;3.88;;;19.20;99.90;;;;;;12378424;28;20058;-38
2021/06/01 20:33:09;;;;;;;5.13;3.58;;;19.10;99.90;;;;;;12379629;28;20051;-39
2021/06/01 20:39:12;;;;;;;5.43;3.33;;;19.20;99.90;;;;;;12383900;28;20050;-40
2021/06/01 20:45:15;;;;;;;6.23;3.50;;;19.30;99.90;;;;;;12382992;28;20502;-39
2021/06/01 20:51:18;;;;;;;7.35;4.05;;;18.80;99.90;;;;;;12378665;28;20413;-38
2021/06/01 20:57:22;;;;;;;6.17;4.03;;;18.80;99.90;;;;;;12380850;28;20104;-41
2021/06/01 21:03:26;;;;;;;8.98;3.67;;;18.70;99.90;;;;;;12386279;28;20053;-38
2021/06/01 21:09:28;;;;;;;5.82;3.88;;;18.40;99.90;;;;;;12393354;28;20475;-38
2021/06/01 21:15:30;;;;;;;9.45;4.00;;;18.20;99.90;;;;;;12396884;28;20041;-39
2021/06/01 21:21:32;;;;;;;6.28;3.45;;;17.80;99.90;;;;;;12398722;28;20054;-39
2021/06/01 21:27:34;;;;;;;8.23;4.10;;;18.00;99.90;;;;;;12397798;28;20058;-38
2021/06/01 21:33:41;;;;;;;7.43;4.28;;;18.10;99.90;;;;;;12393672;28;20553;-38
2021/06/01 21:39:45;;;;;;;6.88;4.30;;;18.20;99.90;;;;;;12403054;28;20057;-38
2021/06/01 21:45:50;;;;;;;6.75;4.10;;;18.20;99.90;;;;;;12396492;28;20181;-40
2021/06/01 21:51:56;;;;;;;11.75;4.35;;;18.20;99.90;;;;;;12394276;28;20128;-38
2021/06/01 21:57:58;;;;;;;6.93;4.95;;;18.00;99.90;;;;;;12393936;28;20058;-38
2021/06/01 22:04:01;;;;;;;8.57;4.80;;;17.90;99.90;;;;;;12391353;28;20461;-38
2021/06/01 22:10:05;;;;;;;8.40;4.35;;;17.70;99.90;;;;;;12398842;28;20054;-38
2021/06/01 22:16:06;;;;;;;5.95;4.38;;;17.70;99.90;;;;;;12392288;28;20092;-38
2021/06/01 22:22:11;;;;;;;8.50;4.78;;;17.80;99.90;;;;;;12383338;28;20138;-40
2021/06/01 22:28:15;;;;;;;8.00;4.80;;;18.00;99.90;;;;;;12386062;28;20050;-38
2021/06/01 22:34:18;;;;;;;7.13;4.60;;;18.10;99.90;;;;;;12381985;28;20050;-37
2021/06/01 22:40:21;;;;;;;6.90;4.40;;;18.10;99.90;;;;;;12380911;28;20533;-38
2021/06/01 22:46:26;;;;;;;7.82;4.65;;;18.10;99.90;;;;;;12386841;28;21182;-38
2021/06/01 22:52:28;;;;;;;9.85;4.47;;;17.80;99.90;;;;;;12381020;28;20145;-39
2021/06/01 22:58:33;;;;;;;6.57;4.07;;;17.70;99.90;;;;;;12386505;28;20058;-38
2021/06/01 23:04:37;;;;;;;7.68;4.35;;;17.40;99.90;;;;;;12385486;28;20103;-38
2021/06/01 23:10:42;;;;;;;9.68;4.97;;;17.40;99.90;;;;;;12384109;28;20072;-40
2021/06/01 23:16:44;;;;;;;8.13;4.40;;;17.30;99.90;;;;;;12387046;28;20132;-39
2021/06/01 23:22:46;;;;;;;6.50;3.65;;;17.30;99.90;;;;;;12381201;28;20056;-38
2021/06/01 23:28:49;;;;;;;5.65;4.38;;;17.40;99.90;;;;;;12387086;28;20062;-41
2021/06/01 23:34:55;;;;;;;9.75;4.53;;;17.40;99.90;;;;;;12387248;28;20066;-38
2021/06/01 23:40:58;;;;;;;11.90;4.72;;;17.40;99.90;;;;;;12381904;28;20208;-38
2021/06/01 23:47:07;;;;;;;9.40;4.97;;;17.40;99.90;;;;;;12387857;28;20046;-38
2021/06/01 23:53:09;;;;;;;7.40;4.18;;;17.40;99.90;;;;;;12379734;28;20054;-39
2021/06/01 23:59:12;;;;;;;8.93;4.35;;;17.20;99.90;;;;;;12387881;28;20050;-39
